Terminal Aerodrome Forecast
Issued by NWS

Home | Current Version | Previous Version | Graphics & Text | Print | Product List | Glossary On
Versions: 1 2 3 4 5 6 7 8 9 10 11 12 13 14 15
678
FTUS42 KMHX 102329
TAFOAJ
TAF
KOAJ 102329Z 1100/1124 24009G16KT P6SM OVC070
     FM110200 27007KT P6SM SKC
     FM111600 28011G18KT P6SM SKC
     FM112300 VRB03KT P6SM SKC
      AMD LTD TO CLD VIS AND WIND=

USA.gov is the U.S. government's official web portal to all federal, state and local government web resources and services.